Latest Weather Observations for Low Isles

IDQ60801

Issued at 12:05 pm EST Friday 21 November 2014 (issued every 30 minutes, with the page automatically refreshed every 10 minutes)

About weather observations | Map of weather stations | Latest weather observations for QLD | Other Formats
Station Details ID: 031037 Name: LOW ISLES LIGHTHOUSE Lat: -16.38 Lon: 145.56 Height: 2.9 m
Data from the previous 72 hours. | See also: Recent months at Low Isles
Date/Time
EST
Temp
°C
App
Temp
°C
Dew
Point
Rel
Hum
%
Delta-T
°C
Wind Press
QNH
hPa
Press
MSL
hPa
Rain
since 9 am
mm
Dir
 
Spd
km/h
Gust
km/h
Spd
kts
Gust
kts
21/12:00pm 31.3 33.2 22.0 57 6.3 SE 15 20 8 11 1013.9 1013.8 0.0
21/11:30am 31.2 33.3 21.7 57 6.4 SE 13 17 7 9 1014.1 - 0.0
21/11:00am 30.7 32.4 20.9 56 6.5 SSE 13 17 7 9 1014.4 - 0.0
21/10:30am 30.2 32.2 21.6 60 5.8 SSE 13 15 7 8 1014.5 - 0.0
21/10:00am 29.7 31.5 21.1 60 5.7 SE 13 17 7 9 1014.7 - 0.0
21/09:30am 30.1 31.9 21.2 59 6.0 ESE 13 17 7 9 1014.9 - 0.0
21/09:00am 29.3 30.5 20.7 59 5.7 SE 15 20 8 11 1014.8 1014.7 0.0
21/08:30am 29.2 30.7 20.6 59 5.7 ESE 13 17 7 9 1014.7 - 0.0
21/08:00am 29.2 30.7 20.6 59 5.7 E 13 17 7 9 1014.4 - 0.0
21/07:30am 28.5 30.1 20.8 63 5.1 E 13 19 7 10 1014.1 - 0.0
21/07:00am 27.4 28.5 21.2 69 4.1 E 17 20 9 11 1013.9 - 0.0
21/06:30am 26.4 27.9 21.2 73 3.4 E 15 19 8 10 1013.7 - 0.0
21/06:00am 25.8 27.4 21.5 77 2.9 E 15 20 8 11 1013.3 1013.2 0.0
21/05:30am 25.6 27.1 21.3 77 2.8 E 15 20 8 11 1012.8 - 0.0
21/05:00am 25.8 26.8 21.0 75 3.2 E 17 22 9 12 1012.6 - 0.0
21/04:30am 25.8 26.7 21.5 77 2.9 E 19 24 10 13 1012.4 - 0.0
21/04:00am 25.9 26.8 21.6 77 2.9 E 19 22 10 12 1012.4 - 0.0
21/03:30am 26.1 27.6 22.0 78 2.7 E 17 20 9 11 1012.3 - 0.0
21/03:00am 26.3 27.6 21.7 76 3.1 E 17 22 9 12 1012.4 1012.3 0.0
21/02:30am 25.9 27.4 21.3 76 3.0 E 15 20 8 11 1012.5 - 0.0
21/02:00am 26.1 27.0 21.5 76 3.1 ENE 19 22 10 12 1012.7 - 0.0
21/01:30am 26.4 27.3 22.0 77 2.9 ENE 20 24 11 13 1012.8 - 0.0
21/01:00am 26.5 27.6 21.9 76 3.1 ENE 19 22 10 12 1013.1 - 0.0
21/12:30am 26.5 28.2 22.3 78 2.8 ENE 17 20 9 11 1013.4 - 0.0
21/12:00am 26.7 28.3 22.1 76 3.1 ENE 17 20 9 11 1013.6 1013.5 0.0
 
Date/Time
EST
Temp
°C
App
Temp
°C
Dew
Point
Rel
Hum
%
Delta-T
°C
Wind Press
QNH
hPa
Press
MSL
hPa
Rain
since 9 am
mm
Dir
 
Spd
km/h
Gust
km/h
Spd
kts
Gust
kts
20/11:30pm 26.5 28.4 22.1 77 3.0 ENE 15 19 8 10 1013.8 - 0.0
20/11:00pm 26.6 28.1 22.0 76 3.1 E 17 20 9 11 1014.0 - 0.0
20/10:30pm 26.7 28.0 22.3 77 3.0 E 19 22 10 12 1014.0 - 0.0
20/10:00pm 26.9 28.6 22.3 76 3.1 E 17 20 9 11 1014.0 - 0.0
20/09:30pm 27.0 29.2 22.6 77 3.0 E 15 20 8 11 1013.7 - 0.0
20/09:00pm 27.0 29.3 22.8 78 2.8 ESE 15 19 8 10 1013.6 1013.5 0.0
20/08:30pm 27.0 29.7 22.8 78 2.8 ESE 13 17 7 9 1013.5 - 0.0
20/08:00pm 27.3 30.4 22.9 77 3.0 E 11 15 6 8 1013.1 - 0.0
20/07:30pm 27.3 30.3 22.7 76 3.1 E 11 17 6 9 1012.8 - 0.0
20/07:00pm 27.3 29.8 22.5 75 3.2 E 13 17 7 9 1012.5 - 0.0
20/06:30pm 27.7 29.4 22.4 73 3.6 E 17 20 9 11 1012.2 - 0.0
20/06:00pm 28.8 30.5 22.3 68 4.4 E 17 20 9 11 1012.1 1012.0 0.0
20/05:30pm 29.0 30.6 22.2 66 4.6 E 17 20 9 11 1011.8 - 0.0
20/05:00pm 29.5 31.1 22.2 65 4.9 E 17 20 9 11 1011.5 - 0.0
20/04:30pm 29.8 31.9 22.5 65 5.0 E 15 20 8 11 1011.5 - 0.0
20/04:00pm 30.5 31.8 22.7 63 5.3 ESE 20 26 11 14 1011.8 - 0.0
20/03:30pm 30.7 32.3 22.8 62 5.4 ESE 19 24 10 13 1012.0 - 0.0
20/03:00pm 30.6 32.1 23.0 64 5.2 ESE 20 26 11 14 1012.1 1012.0 0.0
20/02:30pm 31.4 32.9 22.7 60 6.0 ESE 19 24 10 13 1012.5 - 0.0
20/02:00pm 31.6 33.6 22.9 60 6.0 ESE 17 22 9 12 1012.9 - 0.0
20/01:30pm 31.9 33.2 22.6 58 6.4 ESE 20 26 11 14 1013.3 - 0.0
20/01:00pm 32.2 34.1 23.4 59 6.1 ESE 19 26 10 14 1013.6 - 0.0
20/12:30pm 32.1 34.3 23.3 59 6.1 ESE 17 22 9 12 1014.0 - 0.0
20/12:00pm 31.6 33.6 22.9 60 6.0 ESE 17 20 9 11 1014.4 1014.3 0.0
20/11:30am 31.3 33.0 22.3 58 6.1 ESE 17 26 9 14 1014.7 - 0.0
20/11:00am 31.4 33.0 23.2 61 5.6 ESE 20 26 11 14 1015.1 - 0.0
20/10:30am 32.0 34.3 23.5 60 5.9 ESE 17 20 9 11 1015.5 - 0.0
20/10:00am 30.3 32.5 23.2 65 4.9 ESE 17 24 9 13 1015.7 - 0.0
20/09:30am 29.1 30.5 22.8 69 4.3 ESE 20 26 11 14 1015.9 - 0.0
20/09:00am 29.3 31.2 23.7 72 3.9 ESE 20 24 11 13 1015.6 1015.5 0.0
20/08:30am 28.2 30.5 22.7 72 3.7 E 15 17 8 9 1015.4 - 0.0
20/08:00am 28.9 30.9 22.9 70 4.1 E 17 20 9 11 1015.0 - 0.0
20/07:30am 29.0 31.7 23.4 72 3.8 E 15 20 8 11 1014.5 - 0.0
20/07:00am 27.5 29.8 23.5 79 2.7 ENE 17 20 9 11 1014.1 - 0.0
20/06:30am 26.3 28.6 23.4 84 2.0 ENE 17 20 9 11 1013.8 - 0.0
20/06:00am 25.7 27.9 23.2 86 1.7 ENE 17 19 9 10 1013.5 1013.4 0.0
20/05:30am 25.6 27.8 23.3 87 1.6 ENE 17 20 9 11 1013.2 - 0.0
20/05:00am 25.6 27.8 23.3 87 1.6 ENE 17 20 9 11 1012.7 - 0.0
20/04:30am 25.4 27.1 23.1 87 1.6 ENE 19 20 10 11 1012.5 - 0.0
20/04:00am 25.5 27.5 23.0 86 1.7 ENE 17 19 9 10 1012.3 - 0.0
20/03:30am 25.5 28.0 23.2 87 1.6 ENE 15 19 8 10 1012.2 - 0.0
20/03:00am 25.7 27.7 23.0 85 1.8 ENE 17 20 9 11 1012.1 1012.0 0.0
20/02:30am 25.9 28.4 23.2 85 1.8 ENE 15 17 8 9 1012.1 - 0.0
20/02:00am 26.3 28.2 23.4 84 2.0 ENE 19 22 10 12 1012.2 - 0.0
20/01:30am 26.2 28.7 23.1 83 2.1 NE 15 17 8 9 1012.5 - 0.0
20/01:00am 26.5 28.8 23.4 83 2.1 NE 17 20 9 11 1012.9 - 0.0
20/12:30am 26.5 28.4 23.4 83 2.1 NE 19 22 10 12 - - 0.0
20/12:00am 26.7 28.5 23.6 83 2.1 NE 20 24 11 13 1013.3 1013.2 0.0
 
Date/Time
EST
Temp
°C
App
Temp
°C
Dew
Point
Rel
Hum
%
Delta-T
°C
Wind Press
QNH
hPa
Press
MSL
hPa
Rain
since 9 am
mm
Dir
 
Spd
km/h
Gust
km/h
Spd
kts
Gust
kts
19/11:30pm 26.6 28.5 23.5 83 2.1 NE 19 20 10 11 1013.6 - 0.0
19/11:00pm 26.7 29.1 23.6 83 2.1 NE 17 20 9 11 1013.8 - 0.0
19/10:30pm 26.7 29.1 23.6 83 2.1 NE 17 20 9 11 1013.9 - 0.0
19/10:00pm 26.9 29.2 23.4 81 2.4 NE 17 20 9 11 1013.9 - 0.0
19/09:30pm 27.1 29.9 23.6 81 2.4 ENE 15 20 8 11 1013.7 - 0.0
19/09:00pm 27.0 29.8 23.7 82 2.3 ENE 15 17 8 9 1013.7 1013.6 0.0
19/08:30pm 26.9 30.2 23.2 80 2.5 ENE 11 15 6 8 1013.5 - 0.0
19/08:00pm 27.1 30.3 23.1 79 2.7 ENE 11 13 6 7 1013.3 - 0.0
19/07:30pm 27.3 30.5 23.1 78 2.9 ENE 11 15 6 8 1013.1 - 0.0
19/07:00pm 27.6 30.4 23.0 76 3.1 ENE 13 17 7 9 1013.0 - 0.0
19/06:30pm 28.2 30.9 22.9 73 3.6 ENE 13 17 7 9 1012.8 - 0.0
19/06:00pm 29.1 31.7 22.6 68 4.4 ENE 13 17 7 9 1012.7 1012.6 0.0
19/05:30pm 29.8 32.1 22.8 66 4.8 ENE 15 17 8 9 1012.6 - 0.0
19/05:00pm 30.8 32.8 22.9 62 5.4 ENE 17 20 9 11 1012.5 - 0.0
19/04:30pm 31.4 33.2 23.2 61 5.6 ENE 19 22 10 12 1012.6 - 0.0
19/04:00pm 31.7 33.2 23.0 60 6.0 ENE 20 24 11 13 1012.8 - 0.0
19/03:30pm 32.0 33.1 22.4 57 6.6 ENE 20 24 11 13 1012.8 - 0.0
19/03:00pm 32.9 34.5 23.2 56 6.7 E 20 24 11 13 1012.9 1012.8 0.0
19/02:30pm 33.5 34.7 23.2 54 7.1 ENE 22 24 12 13 1013.0 - 0.0
19/02:00pm 33.1 34.6 23.1 55 6.9 ENE 20 24 11 13 1013.1 - 0.0
19/01:30pm 32.8 35.1 23.4 57 6.5 ENE 17 20 9 11 1013.2 - 0.0
19/01:00pm 34.6 37.5 23.9 53 7.5 NE 15 19 8 10 1013.8 - 0.0
19/12:30pm 31.4 33.3 22.1 57 6.3 ENE 15 19 8 10 1014.1 - 0.0
19/12:00pm 33.2 36.3 23.5 56 6.7 ENE 13 15 7 8 1014.5 1014.4 0.0
19/11:30am 33.3 35.9 22.7 53 7.3 NE 13 15 7 8 1014.9 - 0.0
19/11:00am 32.6 36.0 23.3 58 6.4 NE 11 13 6 7 1015.2 - 0.0
19/10:30am 32.6 36.0 22.7 56 6.8 NE 9 11 5 6 1015.8 - 0.0
19/10:00am 32.4 36.5 23.3 58 6.3 NE 7 11 4 6 1016.1 - 0.0
19/09:30am 31.2 35.1 23.0 61 5.6 ENE 7 11 4 6 1016.2 - 0.0
19/09:00am 30.4 34.1 22.6 63 5.3 NNE 7 9 4 5 1016.1 1016.0 0.0
19/08:30am 29.5 32.8 22.5 66 4.8 NE 9 11 5 6 1016.2 - 0.0
19/08:00am 28.6 32.1 22.8 71 3.9 NNE 9 11 5 6 1016.0 - 0.0
19/07:30am 28.2 31.7 22.9 73 3.6 ENE 9 13 5 7 1015.6 - 0.0
19/07:00am 27.8 31.1 23.8 79 2.8 ENE 13 17 7 9 1015.2 - 0.0
19/06:30am 26.3 30.4 24.0 87 1.6 NE 9 11 5 6 1014.8 - 0.0
19/06:00am 25.2 29.0 23.4 90 1.2 NE 9 11 5 6 1014.5 1014.4 0.0
19/05:30am 25.0 29.0 23.1 89 1.3 ENE 7 9 4 5 1014.1 - 0.0
19/05:00am 25.0 29.0 23.1 89 1.3 NNE 7 9 4 5 1013.8 - 0.0
19/04:30am 25.1 29.0 23.0 88 1.4 N 7 7 4 4 1013.8 - 0.0
19/04:00am 25.1 29.2 23.0 88 1.4 N 6 9 3 5 1013.6 - 0.0
19/03:30am 25.1 28.7 23.0 88 1.4 N 9 9 5 5 1013.6 - 0.0
19/03:00am 25.2 29.1 22.9 87 1.6 N 7 9 4 5 1013.7 1013.6 0.0
19/02:30am 25.3 29.4 23.0 87 1.6 N 6 7 3 4 1013.9 - 0.0
19/02:00am 25.4 29.6 23.1 87 1.6 NE 6 7 3 4 1014.2 - 0.0
19/01:30am 25.4 29.3 22.9 86 1.7 NE 7 9 4 5 1014.4 - 0.0
19/01:00am 25.6 28.8 23.1 86 1.7 NE 11 13 6 7 1014.6 - 0.0
19/12:30am 25.8 29.0 23.1 85 1.8 ENE 11 15 6 8 1014.8 - 0.0
19/12:00am 26.1 28.8 23.4 85 1.8 ENE 15 19 8 10 1015.1 1015.0 0.0
 
Date/Time
EST
Temp
°C
App
Temp
°C
Dew
Point
Rel
Hum
%
Delta-T
°C
Wind Press
QNH
hPa
Press
MSL
hPa
Rain
since 9 am
mm
Dir
 
Spd
km/h
Gust
km/h
Spd
kts
Gust
kts
18/11:30pm 26.2 28.4 23.3 84 2.0 ENE 17 20 9 11 1015.4 - 0.0
18/11:00pm 26.5 28.5 23.6 84 2.0 ENE 19 20 10 11 1015.6 - 0.0
18/10:30pm 26.6 30.9 23.7 84 2.0 E 7 9 4 5 1015.7 - 0.0
18/10:00pm 26.7 30.6 23.6 83 2.1 ENE 9 11 5 6 1015.6 - 0.0
18/09:30pm 26.6 30.7 23.3 82 2.3 ENE 7 9 4 5 1015.4 - 0.0
18/09:00pm 26.7 30.9 23.4 82 2.3 ENE 7 9 4 5 1015.1 1015.0 0.0
18/08:30pm 26.9 30.7 23.4 81 2.4 ENE 9 11 5 6 1014.9 - 0.0
18/08:00pm 27.1 30.2 23.6 81 2.4 ENE 13 15 7 8 1014.5 - 0.0
18/07:30pm 27.3 30.2 23.1 78 2.9 ENE 13 17 7 9 1014.2 - 0.0
18/07:00pm 27.6 30.0 23.0 76 3.1 NE 15 17 8 9 1013.7 - 0.0
18/06:30pm 28.1 30.9 23.0 74 3.5 ENE 13 15 7 8 1013.4 - 0.0
18/06:00pm 29.3 32.0 22.8 68 4.4 ENE 13 15 7 8 1012.9 1012.8 0.0
18/05:30pm 29.7 32.0 22.7 66 4.8 ENE 15 19 8 10 1012.6 - 0.0
18/05:00pm 30.4 31.8 22.6 63 5.3 ENE 19 20 10 11 1012.2 - 0.0
18/04:30pm 31.5 33.7 23.3 61 5.7 E 17 20 9 11 1011.9 - 0.0
18/04:00pm 31.1 33.0 22.7 61 5.7 E 17 20 9 11 1011.7 - 0.0
18/03:30pm 30.9 33.7 23.0 62 5.4 E 13 19 7 10 1011.9 - 0.0
18/03:00pm 31.5 33.9 22.2 57 6.3 E 13 17 7 9 1012.2 1012.1 0.0
18/02:30pm 31.6 33.8 22.6 59 6.2 ESE 15 19 8 10 1012.5 - 0.0
18/02:00pm 31.8 34.1 22.8 59 6.2 SE 15 19 8 10 1012.8 - 0.0
18/01:30pm 31.0 33.7 22.9 62 5.6 SSE 13 17 7 9 1013.1 - 0.0
18/01:00pm 30.2 33.2 23.4 67 4.7 SSE 13 17 7 9 1013.6 - 0.0
18/12:30pm 29.5 32.8 23.2 69 4.3 SSE 11 15 6 8 1014.0 - 0.0

Other Formats:

Comma delimited format used in spreadsheet applications
http://www.bom.gov.au/fwo/IDQ60801/IDQ60801.94285.axf

JavaScript Object Notation format (JSON) in row-major order
http://www.bom.gov.au/fwo/IDQ60801/IDQ60801.94285.json